Current Weather

Sydney Intl

Sydney Intl, Australia (YSSY)

Report from: Saturday, February 4, 2023 3:51 PM AEDT
Current time: Saturday, February 4, 2023 4:07 PM AEDT

Nearby weather
Weather history
Weather forecast

Temperature28.0°C (82.4°F)
Heat index26.8°C (80.3°F)
Dew point1.0°C (33.8°F)
Winds 20 kts (10.3 m/s, 23 mph) West (280°)
Clouds Sky clear
Altimeter29.65 in.Hg (1004 mB)
Relative humidity17 %
Density altitude1,910 ft. (582 m)
Remarks Ceiling and visibility OK
Special weather observation
Flight conditions Visual Meteorological Conditions
Raw dataSPECI YSSY 040451Z 28020KT CAVOK 28/01 Q1004
An unhandled exception has occurred. See browser dev tools for details. Reload 🗙